createdAt,value
2023-04-09T00:01:08.374Z,7.00
2023-04-09T00:02:10.480Z,7.00
2023-04-09T00:03:12.683Z,6.90
2023-04-09T00:04:14.243Z,6.90
2023-04-09T00:05:15.720Z,6.90
2023-04-09T00:06:17.128Z,6.80
2023-04-09T00:07:18.527Z,6.80
2023-04-09T00:08:20.025Z,6.80
2023-04-09T00:09:21.547Z,6.70
2023-04-09T00:10:23.257Z,6.70
2023-04-09T00:11:24.861Z,6.70
2023-04-09T00:12:26.442Z,6.70
2023-04-09T00:13:38.608Z,6.60
2023-04-09T00:14:40.814Z,6.60
2023-04-09T00:15:42.405Z,6.60
2023-04-09T00:16:44.234Z,6.60
2023-04-09T00:17:46.057Z,6.60
2023-04-09T00:18:47.530Z,6.50
2023-04-09T00:19:49.292Z,6.50
2023-04-09T00:20:50.905Z,6.40
2023-04-09T00:21:52.758Z,6.40
2023-04-09T00:22:54.348Z,6.40
2023-04-09T00:23:56.167Z,6.30
2023-04-09T00:24:57.638Z,6.30
2023-04-09T00:25:59.606Z,6.30
2023-04-09T00:27:01.522Z,6.40
2023-04-09T00:28:03.779Z,6.30
2023-04-09T00:29:06.105Z,6.30
2023-04-09T00:30:08.373Z,6.30
2023-04-09T00:31:10.833Z,6.20
2023-04-09T00:32:12.565Z,6.20
2023-04-09T00:33:14.243Z,6.20
2023-04-09T00:34:16.076Z,6.10
2023-04-09T00:35:17.718Z,6.10
2023-04-09T00:36:19.651Z,6.10
2023-04-09T00:37:21.487Z,6.10
2023-04-09T00:38:23.182Z,6.00
2023-04-09T00:39:25.264Z,6.00
2023-04-09T00:40:27.094Z,5.90
2023-04-09T00:41:28.535Z,6.00
2023-04-09T00:42:37.722Z,6.00
2023-04-09T00:43:39.436Z,6.00
2023-04-09T00:44:41.049Z,5.90
2023-04-09T00:45:42.762Z,5.90
2023-04-09T00:46:44.263Z,5.80
2023-04-09T00:47:46.734Z,5.80
2023-04-09T00:48:48.252Z,5.80
2023-04-09T00:49:49.637Z,5.80
2023-04-09T00:50:51.089Z,5.70
2023-04-09T00:51:53.768Z,5.70
2023-04-09T00:52:56.444Z,5.60
2023-04-09T00:53:58.004Z,5.70
2023-04-09T00:55:00.938Z,5.70
2023-04-09T00:56:03.480Z,5.70
2023-04-09T00:57:05.185Z,5.60
2023-04-09T00:58:07.253Z,5.60
2023-04-09T00:59:08.684Z,5.60
2023-04-09T01:00:13.041Z,5.60
2023-04-09T01:01:14.605Z,5.60
2023-04-09T01:02:16.339Z,5.50
2023-04-09T01:03:18.078Z,5.60
2023-04-09T01:04:20.469Z,5.50
2023-04-09T01:05:22.070Z,5.60
2023-04-09T01:06:45.476Z,5.50
2023-04-09T01:08:15.159Z,5.40
2023-04-09T01:09:28.451Z,5.50
2023-04-09T01:10:41.804Z,5.40
2023-04-09T01:12:08.082Z,5.40
2023-04-09T01:13:20.324Z,5.30
2023-04-09T01:14:44.069Z,5.30
2023-04-09T01:16:00.280Z,5.20
2023-04-09T01:17:24.622Z,5.30
2023-04-09T01:18:50.533Z,5.30
2023-04-09T01:20:07.519Z,5.30
2023-04-09T01:21:27.515Z,5.30
2023-04-09T01:23:01.413Z,5.30
2023-04-09T01:24:20.498Z,5.30
2023-04-09T01:25:36.860Z,5.20
2023-04-09T01:26:54.224Z,5.10
2023-04-09T01:28:23.803Z,5.10
2023-04-09T01:29:29.799Z,5.00
2023-04-09T01:30:32.066Z,5.00
2023-04-09T01:31:38.980Z,5.00
2023-04-09T01:32:41.935Z,5.00
2023-04-09T01:33:45.558Z,5.00
2023-04-09T01:34:49.355Z,4.90
2023-04-09T01:35:52.302Z,4.90
2023-04-09T01:36:58.735Z,4.90
2023-04-09T01:38:01.371Z,4.90
2023-04-09T01:39:03.750Z,4.90
2023-04-09T01:40:06.904Z,4.80
2023-04-09T01:41:14.196Z,4.80
2023-04-09T01:42:17.634Z,4.80
2023-04-09T01:43:20.091Z,4.80
2023-04-09T01:44:23.538Z,4.80
2023-04-09T01:45:26.376Z,4.80
2023-04-09T01:46:29.008Z,4.70
2023-04-09T01:47:31.181Z,4.70
2023-04-09T01:48:34.009Z,4.70
2023-04-09T01:49:37.454Z,4.80
2023-04-09T01:50:39.851Z,4.70
2023-04-09T01:51:42.107Z,4.70
2023-04-09T01:52:44.407Z,4.60
2023-04-09T01:53:46.041Z,4.60
2023-04-09T01:54:47.514Z,4.60
2023-04-09T01:55:48.950Z,4.60
2023-04-09T01:56:50.711Z,4.60
2023-04-09T01:57:53.278Z,4.60
2023-04-09T01:58:54.893Z,4.60
2023-04-09T01:59:56.682Z,4.50
2023-04-09T02:01:22.966Z,4.60
2023-04-09T02:02:33.514Z,4.50
2023-04-09T02:03:41.107Z,4.50
2023-04-09T02:04:48.390Z,4.50
2023-04-09T02:06:01.703Z,4.50
2023-04-09T02:07:23.386Z,4.40
2023-04-09T02:08:26.405Z,4.40
2023-04-09T02:09:30.490Z,4.50
2023-04-09T02:10:34.924Z,4.50
2023-04-09T02:11:42.506Z,4.60
2023-04-09T02:12:49.864Z,4.50
2023-04-09T02:13:54.421Z,4.50
2023-04-09T02:14:56.743Z,4.50
2023-04-09T02:16:00.067Z,4.40
2023-04-09T02:17:02.226Z,4.40
2023-04-09T02:18:03.851Z,4.40
2023-04-09T02:19:05.673Z,4.30
2023-04-09T02:20:08.336Z,4.30
2023-04-09T02:21:11.389Z,4.30
2023-04-09T02:22:13.711Z,4.20
2023-04-09T02:23:16.798Z,4.30
2023-04-09T02:24:18.221Z,4.30
2023-04-09T02:25:19.797Z,4.20
2023-04-09T02:26:21.546Z,4.30
2023-04-09T02:27:23.137Z,4.20
2023-04-09T02:28:25.000Z,4.20
2023-04-09T02:29:26.722Z,4.20
2023-04-09T02:30:28.141Z,4.20
2023-04-09T02:31:30.685Z,4.20
2023-04-09T02:32:32.307Z,4.20
2023-04-09T02:33:34.122Z,4.20
2023-04-09T02:34:36.094Z,4.10
2023-04-09T02:35:37.682Z,4.20
2023-04-09T02:36:39.293Z,4.20
2023-04-09T02:37:40.679Z,4.20
2023-04-09T02:38:42.561Z,4.10
2023-04-09T02:39:44.218Z,4.10
2023-04-09T02:40:45.655Z,4.10
2023-04-09T02:41:47.193Z,4.10
2023-04-09T02:42:48.693Z,4.10
2023-04-09T02:43:50.268Z,4.20
2023-04-09T02:44:51.841Z,4.10
2023-04-09T02:45:53.467Z,4.00
2023-04-09T02:46:55.991Z,4.10
2023-04-09T02:47:57.583Z,4.10
2023-04-09T02:48:59.339Z,4.10
2023-04-09T02:50:00.732Z,4.10
2023-04-09T02:51:06.320Z,4.10
2023-04-09T02:52:09.729Z,4.10
2023-04-09T02:53:11.159Z,4.00
2023-04-09T02:54:12.646Z,4.10
2023-04-09T02:55:15.470Z,4.10
2023-04-09T02:56:17.175Z,4.10
2023-04-09T02:57:18.984Z,4.10
2023-04-09T02:58:20.454Z,4.00
2023-04-09T02:59:21.901Z,4.00
2023-04-09T03:00:23.411Z,4.00
2023-04-09T03:01:25.223Z,3.90
2023-04-09T03:02:27.137Z,3.90
2023-04-09T03:03:29.328Z,3.90
2023-04-09T03:04:30.868Z,3.90
2023-04-09T03:05:32.307Z,3.90
2023-04-09T03:06:34.401Z,3.90
2023-04-09T03:07:36.510Z,3.90
2023-04-09T03:08:37.895Z,4.00
2023-04-09T03:09:39.988Z,4.00
2023-04-09T03:10:41.505Z,3.90
2023-04-09T03:11:42.961Z,3.90
2023-04-09T03:12:44.731Z,3.90
2023-04-09T03:13:46.857Z,3.90
2023-04-09T03:14:48.466Z,3.90
2023-04-09T03:15:53.985Z,3.90
2023-04-09T03:16:55.540Z,3.90
2023-04-09T03:17:56.954Z,3.80
2023-04-09T03:18:58.627Z,3.80
2023-04-09T03:20:00.038Z,3.80
2023-04-09T03:21:09.640Z,3.80
2023-04-09T03:22:15.293Z,3.80
2023-04-09T03:23:16.928Z,3.80
2023-04-09T03:24:21.681Z,3.80
2023-04-09T03:25:23.914Z,3.70
2023-04-09T03:26:28.525Z,3.80
2023-04-09T03:27:30.683Z,3.80
2023-04-09T03:28:32.780Z,3.80
2023-04-09T03:29:34.544Z,3.80
2023-04-09T03:30:36.039Z,3.80
2023-04-09T03:31:40.411Z,3.70
2023-04-09T03:32:42.590Z,3.70
2023-04-09T03:33:47.274Z,3.70
2023-04-09T03:34:48.757Z,3.70
2023-04-09T03:35:56.196Z,3.70
2023-04-09T03:37:07.723Z,3.70
2023-04-09T03:38:09.132Z,3.70
2023-04-09T03:39:10.749Z,3.60
2023-04-09T03:40:18.172Z,3.70
2023-04-09T03:41:19.649Z,3.60
2023-04-09T03:42:21.046Z,3.70
2023-04-09T03:43:24.022Z,3.70
2023-04-09T03:44:27.506Z,3.70
2023-04-09T03:45:44.825Z,3.70
2023-04-09T03:46:55.785Z,3.70
2023-04-09T03:47:58.024Z,3.70
2023-04-09T03:49:00.583Z,3.70
2023-04-09T03:50:10.867Z,3.60
2023-04-09T03:51:22.326Z,3.70
2023-04-09T03:52:29.563Z,3.70
2023-04-09T03:53:37.101Z,3.70
2023-04-09T03:54:41.134Z,3.60
2023-04-09T03:55:47.724Z,3.60
2023-04-09T03:56:56.670Z,3.60
2023-04-09T03:57:59.586Z,3.60
2023-04-09T03:59:05.362Z,3.60
2023-04-09T04:00:12.559Z,3.50
2023-04-09T04:01:25.889Z,3.50
2023-04-09T04:02:34.802Z,3.60
2023-04-09T04:03:39.637Z,3.60
2023-04-09T04:04:46.506Z,3.60
2023-04-09T04:05:48.041Z,3.60
2023-04-09T04:06:51.545Z,3.60
2023-04-09T04:08:02.731Z,3.50
2023-04-09T04:09:04.394Z,3.50
2023-04-09T04:10:15.445Z,3.60
2023-04-09T04:11:20.375Z,3.60
2023-04-09T04:12:22.415Z,3.60
2023-04-09T04:13:40.211Z,3.60
2023-04-09T04:14:43.716Z,3.60
2023-04-09T04:15:55.700Z,3.50
2023-04-09T04:16:58.249Z,3.50
2023-04-09T04:18:03.377Z,3.40
2023-04-09T04:19:31.551Z,3.40
2023-04-09T04:20:33.806Z,3.40
2023-04-09T04:21:40.721Z,3.40
2023-04-09T04:22:42.184Z,3.40
2023-04-09T04:23:43.872Z,3.30
2023-04-09T04:24:53.165Z,3.30
2023-04-09T04:25:58.036Z,3.40
2023-04-09T04:27:05.367Z,3.40
2023-04-09T04:28:09.406Z,3.40
2023-04-09T04:29:15.795Z,3.40
2023-04-09T04:30:29.829Z,3.30
2023-04-09T04:31:38.490Z,3.30
2023-04-09T04:32:40.015Z,3.30
2023-04-09T04:33:45.074Z,3.30
2023-04-09T04:34:50.176Z,3.30
2023-04-09T04:36:09.166Z,3.30
2023-04-09T04:37:14.688Z,3.30
2023-04-09T04:38:16.231Z,3.20
2023-04-09T04:39:17.791Z,3.30
2023-04-09T04:40:30.404Z,3.30
2023-04-09T04:41:35.563Z,3.30
2023-04-09T04:42:47.560Z,3.30
2023-04-09T04:43:51.201Z,3.30
2023-04-09T04:44:56.494Z,3.30
2023-04-09T04:46:19.095Z,3.30
2023-04-09T04:47:20.804Z,3.30
2023-04-09T04:48:22.650Z,3.30
2023-04-09T04:49:24.562Z,3.30
2023-04-09T04:50:26.322Z,3.30
2023-04-09T04:51:34.854Z,3.30
2023-04-09T04:52:41.205Z,3.30
2023-04-09T04:53:43.703Z,3.30
2023-04-09T04:54:48.256Z,3.30
2023-04-09T04:55:54.883Z,3.30
2023-04-09T04:56:59.679Z,3.30
2023-04-09T04:58:07.383Z,3.30
2023-04-09T04:59:17.217Z,3.30
2023-04-09T05:00:32.593Z,3.30
2023-04-09T05:01:36.976Z,3.20
2023-04-09T05:02:43.102Z,3.30
2023-04-09T05:04:01.531Z,3.30
2023-04-09T05:05:07.360Z,3.30
2023-04-09T05:06:14.046Z,3.20
2023-04-09T05:07:18.650Z,3.20
2023-04-09T05:08:25.352Z,3.20
2023-04-09T05:09:28.624Z,3.30
2023-04-09T05:10:36.203Z,3.30
2023-04-09T05:11:37.997Z,3.20
2023-04-09T05:12:43.872Z,3.30
2023-04-09T05:13:47.548Z,3.30
2023-04-09T05:14:49.668Z,3.30
2023-04-09T05:15:51.656Z,3.40
2023-04-09T05:16:53.508Z,3.30
2023-04-09T05:17:59.814Z,3.30
2023-04-09T05:19:01.434Z,3.40
2023-04-09T05:20:03.091Z,3.40
2023-04-09T05:21:12.950Z,3.40
2023-04-09T05:22:16.892Z,3.40
2023-04-09T05:23:18.534Z,3.40
2023-04-09T05:24:23.300Z,3.40
2023-04-09T05:25:24.777Z,3.40
2023-04-09T05:26:27.238Z,3.50
2023-04-09T05:27:32.334Z,3.50
2023-04-09T05:28:36.434Z,3.50
2023-04-09T05:29:45.518Z,3.50
2023-04-09T05:30:47.591Z,3.50
2023-04-09T05:31:51.833Z,3.50
2023-04-09T05:33:01.881Z,3.50
2023-04-09T05:34:04.960Z,3.50
2023-04-09T05:35:11.899Z,3.50
2023-04-09T05:36:18.951Z,3.60
2023-04-09T05:37:20.957Z,3.60
2023-04-09T05:38:26.488Z,3.60
2023-04-09T05:39:33.139Z,3.60
2023-04-09T05:40:35.825Z,3.60
2023-04-09T05:41:42.029Z,3.60
2023-04-09T05:43:12.919Z,3.50
2023-04-09T05:44:17.578Z,3.60
2023-04-09T05:45:19.263Z,3.60
2023-04-09T05:46:25.281Z,3.60
2023-04-09T05:47:26.885Z,3.60
2023-04-09T05:48:43.034Z,3.60
2023-04-09T05:49:46.097Z,3.60
2023-04-09T05:50:55.622Z,3.60
2023-04-09T05:52:00.733Z,3.50
2023-04-09T05:53:06.527Z,3.50
2023-04-09T05:54:13.448Z,3.50
2023-04-09T05:55:16.083Z,3.50
2023-04-09T05:56:30.957Z,3.60
2023-04-09T05:57:33.167Z,3.60
2023-04-09T05:58:38.255Z,3.60
2023-04-09T05:59:40.179Z,3.60
2023-04-09T06:00:42.507Z,3.60
2023-04-09T06:01:44.166Z,3.60
2023-04-09T06:02:45.936Z,3.60
2023-04-09T06:03:47.833Z,3.60
2023-04-09T06:04:49.419Z,3.60
2023-04-09T06:05:50.913Z,3.70
2023-04-09T06:06:52.785Z,3.70
2023-04-09T06:07:55.219Z,3.80
2023-04-09T06:08:57.077Z,3.80
2023-04-09T06:09:58.687Z,3.80
2023-04-09T06:11:00.171Z,3.80
2023-04-09T06:12:02.492Z,3.80
2023-04-09T06:13:04.371Z,3.80
2023-04-09T06:14:05.823Z,3.90
2023-04-09T06:15:07.645Z,3.90
2023-04-09T06:16:09.879Z,4.00
2023-04-09T06:17:11.360Z,4.00
2023-04-09T06:18:12.814Z,4.00
2023-04-09T06:19:16.535Z,4.10
2023-04-09T06:20:17.996Z,4.10
2023-04-09T06:21:19.428Z,4.20
2023-04-09T06:22:20.877Z,4.20
2023-04-09T06:23:22.297Z,4.30
2023-04-09T06:24:23.725Z,4.40
2023-04-09T06:25:26.070Z,4.40
2023-04-09T06:26:27.867Z,4.50
2023-04-09T06:27:29.753Z,4.60
2023-04-09T06:28:31.690Z,4.70
2023-04-09T06:29:33.680Z,4.80
2023-04-09T06:30:36.976Z,4.80
2023-04-09T06:31:38.782Z,4.90
2023-04-09T06:32:53.188Z,4.90
2023-04-09T06:33:56.530Z,5.00
2023-04-09T06:34:58.342Z,5.00
2023-04-09T06:35:59.874Z,5.10
2023-04-09T06:37:01.301Z,5.20
2023-04-09T06:38:02.772Z,5.30
2023-04-09T06:39:04.557Z,5.30
2023-04-09T06:40:06.749Z,5.50
2023-04-09T06:41:08.992Z,5.60
2023-04-09T06:42:10.462Z,5.60
2023-04-09T06:43:16.894Z,5.70
2023-04-09T06:44:24.341Z,5.80
2023-04-09T06:45:25.776Z,5.90
2023-04-09T06:46:27.303Z,6.00
2023-04-09T06:47:28.775Z,6.10
2023-04-09T06:48:31.337Z,6.10
2023-04-09T06:49:32.753Z,6.20
2023-04-09T06:50:34.415Z,6.30
2023-04-09T06:51:35.889Z,6.40
2023-04-09T06:52:37.277Z,6.50
2023-04-09T06:53:39.970Z,6.50
2023-04-09T06:54:41.430Z,6.60
2023-04-09T06:55:43.204Z,6.60
2023-04-09T06:56:44.708Z,6.70
2023-04-09T06:57:46.060Z,6.80
2023-04-09T06:58:47.778Z,6.80
2023-04-09T06:59:49.194Z,6.90
2023-04-09T07:00:50.752Z,7.00
2023-04-09T07:01:54.535Z,7.10
2023-04-09T07:02:56.692Z,7.10
2023-04-09T07:03:58.505Z,7.20
2023-04-09T07:05:00.913Z,7.30
2023-04-09T07:06:02.428Z,7.30
2023-04-09T07:07:04.020Z,7.40
2023-04-09T07:08:06.108Z,7.40
2023-04-09T07:09:07.636Z,7.50
2023-04-09T07:10:09.540Z,7.60
2023-04-09T07:11:11.075Z,7.60
2023-04-09T07:12:12.821Z,7.70
2023-04-09T07:13:14.180Z,7.80
2023-04-09T07:14:16.294Z,7.80
2023-04-09T07:15:19.423Z,7.90
2023-04-09T07:16:21.049Z,7.90
2023-04-09T07:17:22.590Z,8.00
2023-04-09T07:18:24.465Z,8.10
2023-04-09T07:19:25.846Z,8.10
2023-04-09T07:20:27.641Z,8.20
2023-04-09T07:21:29.325Z,8.30
2023-04-09T07:22:31.155Z,8.40
2023-04-09T07:23:38.944Z,8.40
2023-04-09T07:24:40.749Z,8.50
2023-04-09T07:25:42.339Z,8.60
2023-04-09T07:26:44.335Z,8.60
2023-04-09T07:27:46.104Z,8.70
2023-04-09T07:28:49.042Z,8.70
2023-04-09T07:29:51.278Z,8.80
2023-04-09T07:30:53.317Z,8.80
2023-04-09T07:31:54.812Z,8.90
2023-04-09T07:32:56.534Z,9.00
2023-04-09T07:33:58.535Z,9.00
2023-04-09T07:35:00.006Z,9.10
2023-04-09T07:36:01.723Z,9.20
2023-04-09T07:37:03.368Z,9.20
2023-04-09T07:38:04.840Z,9.30
2023-04-09T07:39:06.512Z,9.40
2023-04-09T07:40:08.636Z,9.40
2023-04-09T07:41:12.859Z,9.40
2023-04-09T07:42:14.585Z,9.50
2023-04-09T07:43:16.846Z,9.50
2023-04-09T07:44:18.611Z,9.60
2023-04-09T07:45:20.396Z,9.70
2023-04-09T07:46:22.204Z,9.70
2023-04-09T07:47:24.498Z,9.80
2023-04-09T07:48:26.039Z,9.80
2023-04-09T07:49:27.526Z,9.90
2023-04-09T07:50:29.733Z,9.90
2023-04-09T07:51:32.216Z,9.90
2023-04-09T07:52:33.702Z,10.00
2023-04-09T07:53:35.377Z,10.10
2023-04-09T07:54:37.000Z,10.10
2023-04-09T07:55:38.369Z,10.20
2023-04-09T07:56:39.812Z,10.20
2023-04-09T07:57:42.970Z,10.30
2023-04-09T07:58:44.950Z,10.30
2023-04-09T07:59:46.779Z,10.30
2023-04-09T08:00:48.656Z,10.40
2023-04-09T08:01:50.376Z,10.50
2023-04-09T08:02:52.793Z,10.50
2023-04-09T08:03:54.729Z,10.50
2023-04-09T08:04:56.444Z,10.50
2023-04-09T08:05:57.934Z,10.40
2023-04-09T08:06:59.975Z,10.40
2023-04-09T08:08:01.434Z,10.30
2023-04-09T08:09:03.410Z,10.40
2023-04-09T08:10:06.383Z,10.30
2023-04-09T08:11:07.889Z,10.30
2023-04-09T08:12:09.635Z,9.90
2023-04-09T08:13:12.049Z,9.80
2023-04-09T08:14:14.614Z,9.70
2023-04-09T08:15:16.756Z,9.70
2023-04-09T08:16:18.279Z,9.80
2023-04-09T08:17:19.729Z,9.70
2023-04-09T08:18:21.447Z,9.80
2023-04-09T08:19:22.829Z,9.80
2023-04-09T08:20:24.256Z,9.80
2023-04-09T08:21:26.705Z,9.80
2023-04-09T08:22:28.156Z,9.80
2023-04-09T08:23:29.874Z,9.80
2023-04-09T08:24:31.311Z,9.80
2023-04-09T08:25:32.969Z,9.90
2023-04-09T08:26:34.362Z,9.80
2023-04-09T08:27:37.086Z,9.70
2023-04-09T08:28:38.466Z,9.70
2023-04-09T08:29:40.498Z,9.70
2023-04-09T08:30:42.149Z,9.70
2023-04-09T08:31:44.014Z,9.70
2023-04-09T08:32:45.900Z,9.70
2023-04-09T08:33:47.747Z,9.80
2023-04-09T08:34:49.279Z,9.90
2023-04-09T08:35:50.848Z,10.00
2023-04-09T08:36:53.121Z,10.10
2023-04-09T08:37:56.900Z,10.10
2023-04-09T08:39:00.511Z,10.20
2023-04-09T08:40:02.391Z,10.30
2023-04-09T08:41:03.902Z,10.40
2023-04-09T08:42:07.295Z,10.40
2023-04-09T08:43:10.541Z,10.50
2023-04-09T08:44:12.406Z,10.50
2023-04-09T08:45:14.250Z,10.60
2023-04-09T08:46:18.908Z,10.70
2023-04-09T08:47:21.134Z,10.70
2023-04-09T08:48:23.678Z,10.80
2023-04-09T08:49:25.518Z,10.90
2023-04-09T08:50:27.537Z,10.80
2023-04-09T08:51:29.038Z,10.90
2023-04-09T08:52:34.516Z,10.80
2023-04-09T08:53:36.792Z,10.80
2023-04-09T08:54:38.479Z,10.90
2023-04-09T08:55:40.641Z,10.90
2023-04-09T08:56:42.123Z,11.00
2023-04-09T08:57:43.631Z,11.00
2023-04-09T08:58:46.565Z,11.10
2023-04-09T08:59:48.417Z,11.20
2023-04-09T09:00:50.241Z,11.20
2023-04-09T09:02:07.967Z,11.30
2023-04-09T09:03:13.114Z,11.40
2023-04-09T09:04:15.468Z,11.50
2023-04-09T09:05:17.259Z,11.50
2023-04-09T09:06:23.160Z,11.50
2023-04-09T09:07:24.887Z,11.60
2023-04-09T09:08:26.862Z,11.50
2023-04-09T09:09:29.868Z,11.50
2023-04-09T09:10:38.804Z,11.60
2023-04-09T09:11:44.914Z,11.60
2023-04-09T09:12:46.425Z,11.60
2023-04-09T09:13:58.063Z,11.60
2023-04-09T09:14:59.810Z,11.70
2023-04-09T09:16:15.143Z,11.50
2023-04-09T09:17:16.667Z,11.60
2023-04-09T09:18:19.254Z,11.50
2023-04-09T09:19:26.855Z,11.50
2023-04-09T09:20:29.016Z,11.60
2023-04-09T09:21:30.548Z,11.70
2023-04-09T09:22:55.076Z,11.70
2023-04-09T09:23:57.585Z,11.80
2023-04-09T09:24:59.099Z,11.70
2023-04-09T09:26:10.715Z,11.60
2023-04-09T09:27:12.389Z,11.60
2023-04-09T09:28:13.794Z,11.70
2023-04-09T09:29:15.603Z,11.70
2023-04-09T09:30:27.514Z,11.80
2023-04-09T09:31:29.053Z,11.90
2023-04-09T09:32:30.738Z,11.90
2023-04-09T09:33:33.990Z,11.90
2023-04-09T09:34:35.506Z,11.90
2023-04-09T09:35:57.604Z,12.00
2023-04-09T09:36:59.196Z,12.10
2023-04-09T09:38:05.333Z,12.10
2023-04-09T09:39:10.558Z,12.10
2023-04-09T09:40:27.828Z,12.20
2023-04-09T09:41:29.802Z,12.30
2023-04-09T09:42:31.968Z,12.30
2023-04-09T09:43:52.232Z,12.40
2023-04-09T09:44:55.658Z,12.40
2023-04-09T09:45:59.015Z,12.50
2023-04-09T09:47:03.255Z,12.40
2023-04-09T09:48:05.965Z,12.50
2023-04-09T09:49:08.789Z,12.60
2023-04-09T09:50:10.816Z,12.70
2023-04-09T09:51:14.359Z,12.60
2023-04-09T09:52:20.499Z,12.40
2023-04-09T09:53:24.801Z,12.40
2023-04-09T09:54:34.976Z,12.40
2023-04-09T09:55:42.709Z,12.30
2023-04-09T09:56:45.566Z,12.30
2023-04-09T09:57:50.648Z,12.40
2023-04-09T09:59:02.079Z,12.40
2023-04-09T10:00:04.979Z,12.40
2023-04-09T10:01:17.681Z,12.40
2023-04-09T10:02:23.257Z,12.30
2023-04-09T10:03:30.834Z,12.30
2023-04-09T10:04:36.662Z,12.30
2023-04-09T10:05:40.952Z,12.20
2023-04-09T10:06:45.089Z,12.30
2023-04-09T10:07:49.541Z,12.40
2023-04-09T10:08:52.874Z,12.50
2023-04-09T10:09:56.954Z,12.60
2023-04-09T10:10:58.505Z,12.70
2023-04-09T10:12:03.306Z,12.80
2023-04-09T10:13:07.702Z,12.80
2023-04-09T10:14:10.528Z,12.90
2023-04-09T10:15:12.422Z,13.00
2023-04-09T10:16:14.288Z,13.10
2023-04-09T10:17:16.417Z,13.10
2023-04-09T10:18:19.066Z,13.30
2023-04-09T10:19:22.201Z,13.20
2023-04-09T10:20:29.779Z,13.30
2023-04-09T10:22:00.846Z,13.30
2023-04-09T10:23:09.627Z,13.30
2023-04-09T10:24:11.820Z,13.40
2023-04-09T10:25:13.674Z,13.40
2023-04-09T10:26:15.426Z,13.40
2023-04-09T10:27:18.292Z,13.40
2023-04-09T10:28:19.889Z,13.40
2023-04-09T10:29:29.243Z,13.40
2023-04-09T10:30:34.596Z,13.50
2023-04-09T10:31:55.124Z,13.60
2023-04-09T10:32:57.263Z,13.60
2023-04-09T10:34:04.568Z,13.60
2023-04-09T10:35:06.936Z,13.60
2023-04-09T10:36:12.698Z,13.70
2023-04-09T10:37:20.427Z,13.60
2023-04-09T10:38:51.204Z,13.60
2023-04-09T10:39:54.188Z,13.70
2023-04-09T10:40:55.686Z,13.70
2023-04-09T10:41:58.797Z,13.60
2023-04-09T10:43:03.085Z,13.60
2023-04-09T10:44:19.440Z,13.70
2023-04-09T10:45:22.474Z,13.70
2023-04-09T10:46:34.264Z,13.70
2023-04-09T10:47:38.343Z,13.60
2023-04-09T10:48:39.928Z,13.70
2023-04-09T10:49:42.248Z,13.70
2023-04-09T10:50:45.849Z,13.70
2023-04-09T10:51:54.622Z,13.70
2023-04-09T10:52:58.371Z,13.80
2023-04-09T10:53:59.928Z,13.80
2023-04-09T10:55:01.713Z,13.80
2023-04-09T10:56:16.255Z,13.80
2023-04-09T10:57:19.342Z,13.80
2023-04-09T10:58:21.105Z,13.90
2023-04-09T10:59:22.698Z,13.80
2023-04-09T11:00:24.437Z,13.80
2023-04-09T11:01:27.366Z,13.80
2023-04-09T11:02:29.015Z,13.80
2023-04-09T11:03:44.125Z,13.90
2023-04-09T11:05:14.823Z,13.90
2023-04-09T11:06:20.905Z,13.80
2023-04-09T11:07:25.151Z,13.80
2023-04-09T11:08:32.040Z,13.60
2023-04-09T11:09:36.564Z,13.50
2023-04-09T11:10:49.783Z,13.40
2023-04-09T11:11:57.475Z,13.40
2023-04-09T11:13:01.039Z,13.40
2023-04-09T11:14:02.785Z,13.40
2023-04-09T11:15:05.686Z,13.40
2023-04-09T11:16:07.537Z,13.50
2023-04-09T11:17:09.074Z,13.70
2023-04-09T11:18:22.022Z,13.60
2023-04-09T11:19:23.792Z,13.70
2023-04-09T11:20:26.706Z,13.60
2023-04-09T11:21:28.831Z,13.50
2023-04-09T11:22:30.826Z,13.40
2023-04-09T11:23:33.166Z,13.40
2023-04-09T11:24:41.977Z,13.40
2023-04-09T11:25:49.580Z,13.60
2023-04-09T11:26:51.313Z,13.70
2023-04-09T11:27:53.200Z,13.80
2023-04-09T11:28:58.342Z,13.90
2023-04-09T11:29:59.740Z,14.00
2023-04-09T11:31:05.617Z,14.10
2023-04-09T11:32:07.218Z,14.20
2023-04-09T11:33:09.204Z,14.30
2023-04-09T11:34:14.379Z,14.40
2023-04-09T11:35:21.316Z,14.50
2023-04-09T11:36:23.035Z,14.60
2023-04-09T11:37:24.499Z,14.70
2023-04-09T11:38:25.974Z,14.70
2023-04-09T11:39:27.660Z,14.80
2023-04-09T11:40:29.292Z,14.80
2023-04-09T11:41:38.012Z,14.50
2023-04-09T11:42:39.428Z,14.30
2023-04-09T11:43:41.091Z,14.30
2023-04-09T11:44:44.615Z,14.30
2023-04-09T11:45:49.293Z,14.40
2023-04-09T11:46:51.997Z,14.50
2023-04-09T11:48:02.584Z,14.50
2023-04-09T11:49:04.735Z,14.60
2023-04-09T11:50:07.984Z,14.80
2023-04-09T11:51:10.401Z,14.90
2023-04-09T11:52:12.088Z,15.00
2023-04-09T11:53:31.695Z,15.10
2023-04-09T11:54:36.372Z,15.20
2023-04-09T11:55:37.852Z,15.30
2023-04-09T11:56:39.282Z,15.30
2023-04-09T11:57:46.156Z,15.40
2023-04-09T11:58:48.552Z,15.40
2023-04-09T11:59:50.180Z,15.40
2023-04-09T12:00:58.786Z,15.50
2023-04-09T12:02:01.531Z,15.50
2023-04-09T12:03:06.089Z,15.50
2023-04-09T12:04:07.979Z,15.50
2023-04-09T12:05:11.813Z,15.50
2023-04-09T12:06:13.581Z,15.20
2023-04-09T12:07:15.083Z,15.20
2023-04-09T12:08:22.673Z,15.20
2023-04-09T12:09:24.217Z,15.20
2023-04-09T12:10:30.094Z,15.00
2023-04-09T12:11:32.678Z,14.90
2023-04-09T12:12:44.850Z,14.90
2023-04-09T12:13:47.112Z,14.80
2023-04-09T12:14:48.752Z,14.70
2023-04-09T12:15:50.759Z,14.80
2023-04-09T12:16:53.034Z,14.70
2023-04-09T12:17:56.447Z,14.70
2023-04-09T12:19:04.257Z,14.60
2023-04-09T12:20:08.552Z,14.50
2023-04-09T12:21:10.628Z,14.60
2023-04-09T12:22:11.998Z,14.60
2023-04-09T12:23:14.477Z,14.70
2023-04-09T12:24:17.430Z,14.70
2023-04-09T12:25:19.096Z,14.70
2023-04-09T12:26:20.921Z,14.60
2023-04-09T12:27:22.277Z,14.60
2023-04-09T12:28:23.780Z,14.50
2023-04-09T12:29:26.707Z,14.60
2023-04-09T12:30:28.778Z,14.60
2023-04-09T12:31:30.266Z,14.70
2023-04-09T12:32:31.933Z,14.70
2023-04-09T12:33:34.051Z,14.80
2023-04-09T12:34:36.001Z,15.00
2023-04-09T12:35:38.114Z,15.10
2023-04-09T12:36:41.900Z,15.20
2023-04-09T12:37:43.920Z,15.30
2023-04-09T12:38:45.953Z,15.40
2023-04-09T12:39:48.021Z,15.50
2023-04-09T12:40:49.696Z,15.70
2023-04-09T12:41:51.565Z,15.70
2023-04-09T12:42:54.070Z,15.80
2023-04-09T12:43:55.516Z,15.90
2023-04-09T12:44:57.204Z,16.00
2023-04-09T12:45:59.143Z,16.00
2023-04-09T12:47:00.792Z,16.00
2023-04-09T12:48:02.380Z,16.00
2023-04-09T12:49:04.183Z,15.90
2023-04-09T12:50:06.845Z,16.00
2023-04-09T12:51:08.937Z,16.00
2023-04-09T12:52:10.625Z,16.00
2023-04-09T12:53:12.244Z,16.10
2023-04-09T12:54:13.899Z,16.20
2023-04-09T12:55:15.619Z,16.20
2023-04-09T12:56:17.153Z,16.30
2023-04-09T12:57:18.877Z,16.20
2023-04-09T12:58:20.539Z,16.20
2023-04-09T12:59:21.938Z,16.20
2023-04-09T13:00:23.453Z,16.00
2023-04-09T13:01:24.872Z,15.90
2023-04-09T13:02:26.848Z,16.00
2023-04-09T13:03:28.993Z,16.00
2023-04-09T13:04:31.299Z,15.80
2023-04-09T13:05:35.483Z,15.60
2023-04-09T13:06:37.231Z,15.60
2023-04-09T13:07:39.765Z,15.60
2023-04-09T13:08:42.237Z,15.70
2023-04-09T13:09:45.213Z,15.80
2023-04-09T13:10:47.124Z,16.00
2023-04-09T13:11:48.617Z,16.10
2023-04-09T13:12:50.009Z,16.20
2023-04-09T13:13:52.244Z,16.30
2023-04-09T13:14:54.971Z,16.40
2023-04-09T13:15:56.435Z,16.60
2023-04-09T13:16:57.859Z,16.70
2023-04-09T13:17:59.580Z,16.70
2023-04-09T13:19:01.031Z,16.80
2023-04-09T13:20:03.053Z,16.90
2023-04-09T13:21:04.540Z,17.00
2023-04-09T13:22:08.063Z,17.00
2023-04-09T13:23:09.574Z,17.10
2023-04-09T13:24:11.135Z,17.10
2023-04-09T13:25:14.795Z,17.20
2023-04-09T13:26:16.546Z,17.20
2023-04-09T13:27:18.179Z,17.20
2023-04-09T13:28:20.171Z,17.30
2023-04-09T13:29:21.947Z,17.30
2023-04-09T13:30:23.843Z,17.30
2023-04-09T13:31:25.693Z,17.20
2023-04-09T13:32:27.247Z,17.20
2023-04-09T13:33:28.708Z,17.20
2023-04-09T13:34:30.216Z,17.30
2023-04-09T13:35:31.899Z,17.30
2023-04-09T13:36:33.950Z,17.30
2023-04-09T13:37:35.695Z,17.40
2023-04-09T13:38:37.111Z,17.40
2023-04-09T13:39:38.515Z,17.50
2023-04-09T13:40:40.836Z,17.50
2023-04-09T13:41:42.241Z,17.60
2023-04-09T13:42:43.607Z,17.60
2023-04-09T13:43:45.350Z,17.40
2023-04-09T13:44:46.822Z,17.40
2023-04-09T13:45:49.683Z,17.40
2023-04-09T13:46:51.402Z,17.40
2023-04-09T13:47:53.984Z,17.50
2023-04-09T13:48:55.705Z,17.30
2023-04-09T13:49:57.292Z,17.40
2023-04-09T13:50:58.887Z,17.40
2023-04-09T13:52:00.818Z,17.50
2023-04-09T13:53:05.182Z,17.50
2023-04-09T13:54:08.595Z,17.60
2023-04-09T13:55:10.458Z,17.70
2023-04-09T13:56:11.984Z,17.80
2023-04-09T13:57:13.514Z,17.80
2023-04-09T13:58:15.676Z,17.70
2023-04-09T13:59:17.249Z,17.80
2023-04-09T14:00:19.912Z,17.80
2023-04-09T14:01:21.705Z,17.90
2023-04-09T14:02:23.884Z,18.00